createdAt,value
2022-08-21T00:01:28.433Z,17.90
2022-08-21T00:03:57.085Z,17.90
2022-08-21T00:06:28.641Z,17.90
2022-08-21T00:09:04.167Z,17.90
2022-08-21T00:11:36.871Z,17.90
2022-08-21T00:14:08.347Z,17.90
2022-08-21T00:16:39.528Z,17.90
2022-08-21T00:19:09.320Z,17.80
2022-08-21T00:21:40.625Z,17.70
2022-08-21T00:24:15.235Z,17.60
2022-08-21T00:26:44.323Z,17.50
2022-08-21T00:29:14.356Z,17.50
2022-08-21T00:31:42.380Z,17.50
2022-08-21T00:34:12.363Z,17.40
2022-08-21T00:36:42.129Z,17.30
2022-08-21T00:39:11.773Z,17.20
2022-08-21T00:41:44.275Z,17.10
2022-08-21T00:44:17.315Z,17.00
2022-08-21T00:46:48.004Z,17.00
2022-08-21T00:49:16.774Z,16.90
2022-08-21T00:51:50.957Z,16.80
2022-08-21T00:54:22.846Z,16.80
2022-08-21T00:56:59.560Z,16.70
2022-08-21T00:59:31.552Z,16.40
2022-08-21T01:02:01.699Z,16.10
2022-08-21T01:04:32.853Z,16.00
2022-08-21T01:07:00.769Z,15.90
2022-08-21T01:09:32.805Z,15.90
2022-08-21T01:12:02.758Z,15.80
2022-08-21T01:14:33.591Z,15.80
2022-08-21T01:17:06.391Z,15.90
2022-08-21T01:19:37.983Z,15.80
2022-08-21T01:22:08.308Z,15.80
2022-08-21T01:24:40.357Z,15.70
2022-08-21T01:27:08.961Z,15.60
2022-08-21T01:29:43.802Z,15.50
2022-08-21T01:32:16.164Z,15.40
2022-08-21T01:34:49.392Z,15.30
2022-08-21T01:37:22.320Z,15.30
2022-08-21T01:39:52.664Z,15.20
2022-08-21T01:42:20.800Z,15.00
2022-08-21T01:44:50.914Z,14.80
2022-08-21T01:47:24.409Z,14.70
2022-08-21T01:49:54.784Z,14.70
2022-08-21T01:52:28.703Z,14.80
2022-08-21T01:54:58.267Z,14.90
2022-08-21T01:57:26.915Z,14.90
2022-08-21T01:59:58.932Z,14.90
2022-08-21T02:02:26.847Z,14.90
2022-08-21T02:05:00.199Z,14.90
2022-08-21T02:07:31.748Z,14.90
2022-08-21T02:09:59.631Z,14.80
2022-08-21T02:12:29.611Z,14.70
2022-08-21T02:15:01.465Z,14.70
2022-08-21T02:17:39.830Z,14.70
2022-08-21T02:20:09.713Z,14.70
2022-08-21T02:22:45.705Z,14.60
2022-08-21T02:25:16.455Z,14.60
2022-08-21T02:27:48.473Z,14.60
2022-08-21T02:30:20.454Z,14.50
2022-08-21T02:32:50.281Z,14.50
2022-08-21T02:35:22.456Z,14.60
2022-08-21T02:38:02.890Z,14.60
2022-08-21T02:40:38.980Z,14.50
2022-08-21T02:43:15.322Z,14.50
2022-08-21T02:45:46.858Z,14.50
2022-08-21T02:48:17.875Z,14.50
2022-08-21T02:50:49.052Z,14.40
2022-08-21T02:53:22.818Z,14.30
2022-08-21T02:55:52.700Z,14.30
2022-08-21T02:58:25.307Z,14.30
2022-08-21T03:00:56.003Z,14.20
2022-08-21T03:03:25.515Z,14.20
2022-08-21T03:05:54.871Z,14.30
2022-08-21T03:08:26.602Z,14.20
2022-08-21T03:10:57.284Z,14.20
2022-08-21T03:13:28.264Z,14.30
2022-08-21T03:15:58.639Z,14.30
2022-08-21T03:18:29.620Z,14.30
2022-08-21T03:20:58.822Z,14.40
2022-08-21T03:23:32.510Z,14.30
2022-08-21T03:26:02.168Z,14.30
2022-08-21T03:28:30.424Z,14.20
2022-08-21T03:31:00.556Z,14.10
2022-08-21T03:33:32.092Z,14.00
2022-08-21T03:36:05.335Z,14.00
2022-08-21T03:38:35.940Z,14.00
2022-08-21T03:41:04.880Z,14.00
2022-08-21T03:43:34.878Z,14.00
2022-08-21T03:46:04.315Z,13.90
2022-08-21T03:48:35.133Z,13.90
2022-08-21T03:51:03.190Z,13.80
2022-08-21T03:53:31.279Z,13.80
2022-08-21T03:56:01.978Z,13.70
2022-08-21T03:58:30.369Z,13.70
2022-08-21T04:01:01.947Z,13.70
2022-08-21T04:03:33.379Z,13.70
2022-08-21T04:06:03.445Z,13.80
2022-08-21T04:08:34.948Z,13.70
2022-08-21T04:11:06.837Z,13.70
2022-08-21T04:13:36.026Z,13.70
2022-08-21T04:16:12.636Z,13.70
2022-08-21T04:18:41.923Z,13.70
2022-08-21T04:21:12.329Z,13.60
2022-08-21T04:23:44.733Z,13.50
2022-08-21T04:26:15.225Z,13.40
2022-08-21T04:28:45.363Z,13.40
2022-08-21T04:31:16.116Z,13.30
2022-08-21T04:33:47.981Z,13.30
2022-08-21T04:36:18.735Z,13.30
2022-08-21T04:38:55.169Z,13.20
2022-08-21T04:41:30.444Z,13.20
2022-08-21T04:43:59.047Z,13.30
2022-08-21T04:46:28.111Z,13.30
2022-08-21T04:48:57.371Z,13.30
2022-08-21T04:51:30.117Z,13.30
2022-08-21T04:54:03.314Z,13.40
2022-08-21T04:56:41.491Z,13.50
2022-08-21T04:59:17.408Z,13.60
2022-08-21T05:01:50.152Z,13.50
2022-08-21T05:04:26.718Z,13.50
2022-08-21T05:07:01.064Z,13.60
2022-08-21T05:09:31.144Z,13.60
2022-08-21T05:12:03.444Z,13.60
2022-08-21T05:14:34.005Z,13.80
2022-08-21T05:17:03.318Z,13.90
2022-08-21T05:19:33.596Z,14.00
2022-08-21T05:22:02.904Z,14.10
2022-08-21T05:24:40.401Z,14.20
2022-08-21T05:27:11.851Z,14.30
2022-08-21T05:29:40.775Z,14.40
2022-08-21T05:32:11.585Z,14.50
2022-08-21T05:34:39.723Z,14.60
2022-08-21T05:37:11.423Z,14.70
2022-08-21T05:40:20.064Z,14.80
2022-08-21T05:42:29.808Z,14.90
2022-08-21T05:45:01.319Z,15.00
2022-08-21T05:47:31.692Z,15.10
2022-08-21T05:50:00.844Z,15.20
2022-08-21T05:52:28.736Z,15.30
2022-08-21T05:54:58.303Z,15.40
2022-08-21T05:57:27.517Z,15.60
2022-08-21T05:59:57.866Z,15.70
2022-08-21T06:02:27.970Z,15.80
2022-08-21T06:04:58.515Z,15.90
2022-08-21T06:07:26.442Z,16.00
2022-08-21T06:09:57.796Z,16.10
2022-08-21T06:12:26.238Z,16.20
2022-08-21T06:15:03.629Z,16.30
2022-08-21T06:17:34.296Z,16.40
2022-08-21T06:20:04.349Z,16.50
2022-08-21T06:22:35.922Z,16.60
2022-08-21T06:25:03.843Z,16.80
2022-08-21T06:27:34.007Z,16.90
2022-08-21T06:30:04.276Z,17.10
2022-08-21T06:32:34.479Z,17.20
2022-08-21T06:35:07.190Z,17.30
2022-08-21T06:37:36.384Z,17.30
2022-08-21T06:40:05.482Z,17.40
2022-08-21T06:42:47.825Z,17.50
2022-08-21T06:45:17.662Z,17.50
2022-08-21T06:47:49.135Z,17.70
2022-08-21T06:50:19.088Z,17.80
2022-08-21T06:52:50.404Z,17.90
2022-08-21T06:55:21.655Z,18.00
2022-08-21T06:57:52.932Z,18.10
2022-08-21T07:00:23.650Z,18.20
2022-08-21T07:02:52.871Z,18.40
2022-08-21T07:05:24.606Z,18.60
2022-08-21T07:07:54.901Z,18.80
2022-08-21T07:10:23.991Z,18.90
2022-08-21T07:13:00.297Z,19.00
2022-08-21T07:15:29.574Z,19.10
2022-08-21T07:18:01.079Z,19.20
2022-08-21T07:20:42.673Z,19.40
2022-08-21T07:23:14.953Z,19.50
2022-08-21T07:25:45.027Z,19.70
2022-08-21T07:28:15.314Z,19.70
2022-08-21T07:30:47.140Z,19.90
2022-08-21T07:33:16.141Z,20.00
2022-08-21T07:35:48.181Z,20.00
2022-08-21T07:38:18.619Z,20.10
2022-08-21T07:40:48.481Z,20.20
2022-08-21T07:43:17.849Z,20.40
2022-08-21T07:45:47.712Z,20.50
2022-08-21T07:48:17.918Z,20.60
2022-08-21T07:50:50.151Z,20.70
2022-08-21T07:53:18.655Z,20.80
2022-08-21T07:55:48.814Z,21.00
2022-08-21T07:58:16.709Z,21.20
2022-08-21T08:00:44.931Z,21.30
2022-08-21T08:03:14.951Z,21.60
2022-08-21T08:05:52.477Z,22.00
2022-08-21T08:08:22.431Z,22.40
2022-08-21T08:10:51.792Z,22.90
2022-08-21T08:13:20.918Z,23.30
2022-08-21T08:15:48.962Z,23.60
2022-08-21T08:18:16.860Z,23.70
2022-08-21T08:20:47.222Z,24.10
2022-08-21T08:23:17.932Z,24.40
2022-08-21T08:25:48.233Z,24.70
2022-08-21T08:28:18.624Z,25.10
2022-08-21T08:30:47.335Z,25.30
2022-08-21T08:33:16.600Z,25.40
2022-08-21T08:35:48.488Z,25.60
2022-08-21T08:38:21.533Z,26.00
2022-08-21T08:41:02.729Z,26.60
2022-08-21T08:43:33.799Z,27.20
2022-08-21T08:46:06.538Z,27.70
2022-08-21T08:48:53.056Z,28.20
2022-08-21T08:51:26.453Z,28.90
2022-08-21T08:54:01.949Z,29.00
2022-08-21T08:56:43.097Z,29.20
2022-08-21T08:59:18.831Z,29.10
2022-08-21T09:01:47.172Z,29.30
2022-08-21T09:04:26.050Z,28.90
2022-08-21T09:07:10.854Z,28.80
2022-08-21T09:09:57.648Z,28.80
2022-08-21T09:12:46.851Z,29.10
2022-08-21T09:15:24.971Z,29.20
2022-08-21T09:18:18.488Z,29.10
2022-08-21T09:21:01.120Z,29.40
2022-08-21T09:23:38.603Z,29.90
2022-08-21T09:26:16.303Z,30.20
2022-08-21T09:28:44.717Z,30.10
2022-08-21T09:31:26.183Z,29.90
2022-08-21T09:34:02.368Z,30.10
2022-08-21T09:36:44.399Z,30.40
2022-08-21T09:39:14.491Z,30.90
2022-08-21T09:41:44.540Z,31.40
2022-08-21T09:44:13.469Z,31.90
2022-08-21T09:46:54.943Z,32.30
2022-08-21T09:49:30.239Z,32.20
2022-08-21T09:52:00.003Z,32.10
2022-08-21T09:54:33.004Z,32.20
2022-08-21T09:57:34.233Z,32.70
2022-08-21T10:00:12.677Z,33.00
2022-08-21T10:02:40.867Z,33.10
2022-08-21T10:05:17.396Z,33.30
2022-08-21T10:07:46.646Z,33.50
2022-08-21T10:10:21.345Z,33.50
2022-08-21T10:13:00.844Z,33.50
2022-08-21T10:15:44.075Z,33.20
2022-08-21T10:18:22.596Z,32.90
2022-08-21T10:21:01.346Z,33.00
2022-08-21T10:23:44.407Z,33.10
2022-08-21T10:26:28.837Z,32.70
2022-08-21T10:29:08.181Z,32.60
2022-08-21T10:31:48.471Z,32.90
2022-08-21T10:34:26.936Z,32.60
2022-08-21T10:37:13.083Z,32.90
2022-08-21T10:39:53.348Z,32.90
2022-08-21T10:42:42.483Z,32.90
2022-08-21T10:45:27.029Z,32.80
2022-08-21T10:47:59.456Z,32.90
2022-08-21T10:50:34.248Z,32.00
2022-08-21T10:53:31.511Z,31.20
2022-08-21T10:56:04.138Z,31.10
2022-08-21T10:58:35.750Z,31.10
2022-08-21T11:01:13.926Z,30.90
2022-08-21T11:03:48.309Z,30.90
2022-08-21T11:06:22.344Z,31.20
2022-08-21T11:09:00.641Z,31.20
2022-08-21T11:11:36.418Z,30.80
2022-08-21T11:14:13.849Z,31.10
2022-08-21T11:16:50.984Z,30.80
2022-08-21T11:19:27.804Z,30.90
2022-08-21T11:22:04.554Z,31.10
2022-08-21T11:24:40.075Z,31.10
2022-08-21T11:27:19.433Z,30.30
2022-08-21T11:29:52.093Z,29.30
2022-08-21T11:32:59.137Z,28.60
2022-08-21T11:35:37.866Z,28.70
2022-08-21T11:38:31.158Z,29.00
2022-08-21T11:41:24.408Z,29.40
2022-08-21T11:44:02.174Z,29.80
2022-08-21T11:46:38.371Z,30.40
2022-08-21T11:49:34.024Z,31.10
2022-08-21T11:52:11.564Z,31.50
2022-08-21T11:54:49.214Z,31.80
2022-08-21T11:57:27.019Z,32.30
2022-08-21T12:00:03.189Z,32.70
2022-08-21T12:02:36.180Z,32.60
2022-08-21T12:05:09.350Z,32.60
2022-08-21T12:07:41.761Z,32.00
2022-08-21T12:10:15.509Z,31.60
2022-08-21T12:12:45.983Z,30.90
2022-08-21T12:15:31.025Z,30.50
2022-08-21T12:18:02.503Z,29.90
2022-08-21T12:20:58.219Z,30.00
2022-08-21T12:23:34.329Z,30.10
2022-08-21T12:26:29.492Z,30.80
2022-08-21T12:29:18.113Z,31.20
2022-08-21T12:32:02.348Z,31.60
2022-08-21T12:34:38.641Z,31.80
2022-08-21T12:37:20.305Z,32.00
2022-08-21T12:39:53.714Z,32.00
2022-08-21T12:42:27.005Z,31.90
2022-08-21T12:45:02.229Z,31.50
2022-08-21T12:47:35.499Z,31.10
2022-08-21T12:50:13.395Z,31.00
2022-08-21T12:52:50.560Z,31.00
2022-08-21T12:55:31.079Z,31.10
2022-08-21T12:58:01.274Z,31.00
2022-08-21T13:00:34.338Z,30.90
2022-08-21T13:03:03.701Z,30.50
2022-08-21T13:05:41.144Z,30.10
2022-08-21T13:08:14.990Z,29.50
2022-08-21T13:10:45.278Z,28.80
2022-08-21T13:13:25.066Z,28.60
2022-08-21T13:16:00.733Z,28.50
2022-08-21T13:18:34.763Z,28.50
2022-08-21T13:21:09.192Z,28.50
2022-08-21T13:23:40.196Z,28.50
2022-08-21T13:26:18.586Z,28.50
2022-08-21T13:28:51.396Z,28.60
2022-08-21T13:31:28.529Z,28.90
2022-08-21T13:33:57.335Z,29.10
2022-08-21T13:36:30.650Z,28.90
2022-08-21T13:39:04.661Z,28.70
2022-08-21T13:41:38.321Z,28.70
2022-08-21T13:44:47.244Z,28.80
2022-08-21T13:47:22.075Z,29.00
2022-08-21T13:49:58.491Z,29.30
2022-08-21T13:52:29.951Z,29.60
2022-08-21T13:55:11.567Z,30.10
2022-08-21T13:57:42.512Z,30.30
2022-08-21T14:00:17.616Z,30.70
2022-08-21T14:02:48.861Z,30.80
2022-08-21T14:05:23.881Z,30.50
2022-08-21T14:08:01.719Z,30.20
2022-08-21T14:10:33.886Z,30.10
2022-08-21T14:13:05.832Z,30.00
2022-08-21T14:15:42.071Z,29.90
2022-08-21T14:18:17.659Z,29.90
2022-08-21T14:20:49.608Z,29.60
2022-08-21T14:23:28.778Z,29.60
2022-08-21T14:26:02.314Z,29.60
2022-08-21T14:28:35.561Z,29.40
2022-08-21T14:31:15.875Z,29.20
2022-08-21T14:33:48.031Z,29.00
2022-08-21T14:36:18.833Z,29.10
2022-08-21T14:38:47.987Z,29.30
2022-08-21T14:41:24.808Z,29.40
2022-08-21T14:44:09.270Z,29.50
2022-08-21T14:46:51.208Z,29.60
2022-08-21T14:49:27.195Z,29.60
2022-08-21T14:51:58.344Z,29.60
2022-08-21T14:54:30.917Z,29.60
2022-08-21T14:57:07.536Z,29.60
2022-08-21T14:59:38.576Z,29.50
2022-08-21T15:02:09.764Z,29.40
2022-08-21T15:04:37.775Z,29.40
2022-08-21T15:07:08.711Z,29.40
2022-08-21T15:09:37.856Z,29.20
2022-08-21T15:12:10.918Z,29.10
2022-08-21T15:14:44.368Z,28.90
2022-08-21T15:17:14.045Z,28.80
2022-08-21T15:19:42.064Z,28.70
2022-08-21T15:22:18.656Z,28.70
2022-08-21T15:24:50.457Z,28.70
2022-08-21T15:27:23.638Z,28.70
2022-08-21T15:29:55.023Z,28.70
2022-08-21T15:32:29.659Z,28.70
2022-08-21T15:35:06.603Z,28.70
2022-08-21T15:37:37.847Z,28.70
2022-08-21T15:40:08.584Z,28.70
2022-08-21T15:42:41.290Z,28.70
2022-08-21T15:45:14.224Z,28.70
2022-08-21T15:47:47.785Z,28.70
2022-08-21T15:50:16.351Z,28.70
2022-08-21T15:52:46.657Z,28.70
2022-08-21T15:55:16.004Z,28.70
2022-08-21T15:57:57.913Z,28.50
2022-08-21T16:00:27.440Z,28.50
2022-08-21T16:02:59.395Z,28.20
2022-08-21T16:05:27.817Z,28.20
2022-08-21T16:07:58.220Z,28.20
2022-08-21T16:10:30.094Z,28.10
2022-08-21T16:13:07.970Z,28.00
2022-08-21T16:15:44.291Z,28.00
2022-08-21T16:18:16.652Z,28.10
2022-08-21T16:20:46.955Z,28.10
2022-08-21T16:23:17.171Z,28.00
2022-08-21T16:25:53.643Z,28.00
2022-08-21T16:28:27.443Z,27.90
2022-08-21T16:30:56.072Z,27.80
2022-08-21T16:33:34.337Z,27.80
2022-08-21T16:36:03.860Z,27.70
2022-08-21T16:38:38.457Z,27.60
2022-08-21T16:41:11.017Z,27.50
2022-08-21T16:43:42.896Z,27.40
2022-08-21T16:46:15.019Z,27.30
2022-08-21T16:48:45.780Z,27.20
2022-08-21T16:51:14.695Z,27.10
2022-08-21T16:53:45.202Z,27.00
2022-08-21T16:56:15.872Z,27.00
2022-08-21T16:58:52.670Z,26.90
2022-08-21T17:01:25.759Z,26.80
2022-08-21T17:04:01.595Z,26.70
2022-08-21T17:06:30.283Z,26.50
2022-08-21T17:09:01.419Z,26.40
2022-08-21T17:11:39.975Z,26.40
2022-08-21T17:14:19.156Z,26.40
2022-08-21T17:16:49.292Z,26.30
2022-08-21T17:19:17.472Z,26.20
2022-08-21T17:21:45.384Z,26.10
2022-08-21T17:24:18.429Z,26.00
2022-08-21T17:26:56.236Z,25.90
2022-08-21T17:29:32.461Z,25.90
2022-08-21T17:32:01.912Z,25.80
2022-08-21T17:34:31.770Z,25.60
2022-08-21T17:37:01.714Z,25.50
2022-08-21T17:39:34.180Z,25.40
2022-08-21T17:42:06.279Z,25.40
2022-08-21T17:44:43.692Z,25.30
2022-08-21T17:47:13.956Z,25.20
2022-08-21T17:49:42.450Z,25.10
2022-08-21T17:52:11.672Z,25.00
2022-08-21T17:54:47.039Z,25.00
2022-08-21T17:57:22.914Z,24.90
2022-08-21T17:59:58.214Z,24.80
2022-08-21T18:02:26.679Z,24.70
2022-08-21T18:04:58.660Z,24.60
2022-08-21T18:07:32.770Z,24.60
2022-08-21T18:10:02.842Z,24.50
2022-08-21T18:12:33.241Z,24.50
2022-08-21T18:15:10.905Z,24.40
2022-08-21T18:17:47.529Z,24.30
2022-08-21T18:20:20.636Z,24.30
2022-08-21T18:22:51.566Z,24.20
2022-08-21T18:25:23.208Z,24.10
2022-08-21T18:27:52.968Z,24.00
2022-08-21T18:30:25.190Z,23.90
2022-08-21T18:32:55.648Z,23.80
2022-08-21T18:35:28.205Z,23.70
2022-08-21T18:38:01.271Z,23.50
2022-08-21T18:40:31.674Z,23.40
2022-08-21T18:43:04.493Z,23.20
2022-08-21T18:45:40.789Z,23.10
2022-08-21T18:48:16.336Z,22.90
2022-08-21T18:50:47.757Z,22.90
2022-08-21T18:53:27.976Z,22.70
2022-08-21T18:56:04.840Z,22.70
2022-08-21T18:58:47.871Z,22.70
2022-08-21T19:01:17.753Z,22.60
2022-08-21T19:03:45.693Z,22.50
2022-08-21T19:06:18.557Z,22.40
2022-08-21T19:08:48.047Z,22.30
2022-08-21T19:11:23.377Z,22.30
2022-08-21T19:13:54.489Z,22.20
2022-08-21T19:16:26.440Z,22.00
2022-08-21T19:18:54.442Z,21.90
2022-08-21T19:21:28.160Z,21.80
2022-08-21T19:24:00.436Z,21.70
2022-08-21T19:26:30.793Z,21.70
2022-08-21T19:29:03.682Z,21.80
2022-08-21T19:31:38.217Z,21.80
2022-08-21T19:34:15.770Z,21.60
2022-08-21T19:36:46.671Z,21.50
2022-08-21T19:39:18.506Z,21.50
2022-08-21T19:41:53.462Z,21.50
2022-08-21T19:44:30.439Z,21.60
2022-08-21T19:47:05.626Z,21.60
2022-08-21T19:49:36.011Z,21.50
2022-08-21T19:54:52.730Z,21.40
2022-08-21T19:57:21.905Z,21.40
2022-08-21T19:59:53.202Z,21.40
2022-08-21T20:02:27.015Z,21.40
2022-08-21T20:04:56.553Z,21.40
2022-08-21T20:07:27.139Z,21.30
2022-08-21T20:09:57.617Z,21.20
2022-08-21T20:12:29.801Z,21.10
2022-08-21T20:15:00.027Z,21.00
2022-08-21T20:17:38.966Z,21.00
2022-08-21T20:20:07.704Z,21.00
2022-08-21T20:22:36.921Z,21.00
2022-08-21T20:25:07.972Z,21.00
2022-08-21T20:27:40.663Z,21.10
2022-08-21T20:30:10.642Z,21.00
2022-08-21T20:35:30.523Z,21.10
2022-08-21T20:38:03.557Z,21.00
2022-08-21T20:40:35.395Z,21.00
2022-08-21T20:43:07.121Z,20.90
2022-08-21T20:45:43.303Z,20.80
2022-08-21T20:48:17.824Z,20.70
2022-08-21T20:50:56.380Z,20.60
2022-08-21T20:53:43.158Z,20.50
2022-08-21T20:56:18.207Z,20.30
2022-08-21T20:59:00.157Z,20.20
2022-08-21T21:01:36.198Z,20.10
2022-08-21T21:07:06.540Z,20.00
2022-08-21T21:09:45.892Z,20.10
2022-08-21T21:12:27.576Z,20.20
2022-08-21T21:14:59.600Z,20.20
2022-08-21T21:17:34.955Z,20.30
2022-08-21T21:20:15.407Z,20.30
2022-08-21T21:22:51.295Z,20.50
2022-08-21T21:25:39.861Z,20.50
2022-08-21T21:28:16.096Z,20.50
2022-08-21T21:30:46.892Z,20.40
2022-08-21T21:33:23.304Z,20.30
2022-08-21T21:36:10.473Z,20.30
2022-08-21T21:38:51.758Z,20.20
2022-08-21T21:41:27.478Z,20.10
2022-08-21T21:44:14.032Z,20.00
2022-08-21T21:47:03.793Z,19.90
2022-08-21T21:50:08.315Z,19.80
2022-08-21T21:52:59.410Z,19.60
2022-08-21T21:55:43.650Z,19.60
2022-08-21T21:58:46.388Z,19.60
2022-08-21T22:01:23.848Z,19.60
2022-08-21T22:04:00.194Z,19.50
2022-08-21T22:06:41.517Z,19.30
2022-08-21T22:09:20.534Z,19.30
2022-08-21T22:12:03.647Z,19.20
2022-08-21T22:14:48.980Z,19.20
2022-08-21T22:17:37.079Z,19.20
2022-08-21T22:20:16.280Z,19.30
2022-08-21T22:22:47.184Z,19.30
2022-08-21T22:25:35.940Z,19.40
2022-08-21T22:28:10.840Z,19.60
2022-08-21T22:30:45.271Z,19.60
2022-08-21T22:33:20.014Z,19.60
2022-08-21T22:35:51.813Z,19.70
2022-08-21T22:38:36.519Z,19.80
2022-08-21T22:41:18.218Z,19.80
2022-08-21T22:43:55.765Z,19.80
2022-08-21T22:46:34.610Z,19.80
2022-08-21T22:49:08.612Z,19.80
2022-08-21T22:51:43.105Z,19.80
2022-08-21T22:54:21.611Z,19.80
2022-08-21T22:57:02.677Z,19.80
2022-08-21T22:59:37.738Z,19.70
2022-08-21T23:02:20.324Z,19.80
2022-08-21T23:04:51.497Z,19.70
2022-08-21T23:07:43.650Z,19.70
2022-08-21T23:10:22.190Z,19.60
2022-08-21T23:13:09.289Z,19.60
2022-08-21T23:15:46.636Z,19.60
2022-08-21T23:18:28.241Z,19.60
2022-08-21T23:21:08.977Z,19.60
2022-08-21T23:23:51.688Z,19.70
2022-08-21T23:26:27.733Z,19.60
2022-08-21T23:29:24.921Z,19.70
2022-08-21T23:32:04.234Z,19.60
2022-08-21T23:34:46.984Z,19.60
2022-08-21T23:37:49.353Z,19.60
2022-08-21T23:40:50.895Z,19.60
2022-08-21T23:43:49.544Z,19.60
2022-08-21T23:46:43.759Z,19.60
2022-08-21T23:49:28.328Z,19.60
2022-08-21T23:52:06.736Z,19.60
2022-08-21T23:54:50.247Z,19.60
